sensor_id;sensor_type;location;lat;lon;timestamp;temperature;humidity
32476;DHT22;18929;48.008;10.882;2023-09-30T00:01:51;20.70;99.90
32476;DHT22;18929;48.008;10.882;2023-09-30T00:04:18;21.00;99.90
32476;DHT22;18929;48.008;10.882;2023-09-30T00:06:45;20.90;99.90
32476;DHT22;18929;48.008;10.882;2023-09-30T00:09:11;20.80;99.90
32476;DHT22;18929;48.008;10.882;2023-09-30T00:11:39;20.80;99.90
32476;DHT22;18929;48.008;10.882;2023-09-30T00:14:06;20.50;99.90
32476;DHT22;18929;48.008;10.882;2023-09-30T00:16:34;20.80;99.90
32476;DHT22;18929;48.008;10.882;2023-09-30T00:19:02;20.80;99.90
32476;DHT22;18929;48.008;10.882;2023-09-30T00:21:32;20.90;99.90
32476;DHT22;18929;48.008;10.882;2023-09-30T00:23:59;20.90;99.90
32476;DHT22;18929;48.008;10.882;2023-09-30T00:26:26;20.70;99.90
32476;DHT22;18929;48.008;10.882;2023-09-30T00:28:53;20.70;99.90
32476;DHT22;18929;48.008;10.882;2023-09-30T00:31:20;20.40;99.90
32476;DHT22;18929;48.008;10.882;2023-09-30T00:33:49;19.90;99.90
32476;DHT22;18929;48.008;10.882;2023-09-30T00:36:16;20.20;99.90
32476;DHT22;18929;48.008;10.882;2023-09-30T00:38:43;20.30;99.90
32476;DHT22;18929;48.008;10.882;2023-09-30T00:41:10;19.90;99.90
32476;DHT22;18929;48.008;10.882;2023-09-30T00:43:37;20.10;99.90
32476;DHT22;18929;48.008;10.882;2023-09-30T00:46:06;20.40;99.90
32476;DHT22;18929;48.008;10.882;2023-09-30T00:48:46;20.60;99.90
32476;DHT22;18929;48.008;10.882;2023-09-30T00:51:15;20.30;99.90
32476;DHT22;18929;48.008;10.882;2023-09-30T00:53:42;20.30;99.90
32476;DHT22;18929;48.008;10.882;2023-09-30T00:56:10;20.50;99.90
32476;DHT22;18929;48.008;10.882;2023-09-30T00:58:37;20.60;99.90
32476;DHT22;18929;48.008;10.882;2023-09-30T01:01:04;20.50;99.90
32476;DHT22;18929;48.008;10.882;2023-09-30T01:03:32;20.50;99.90
32476;DHT22;18929;48.008;10.882;2023-09-30T01:06:00;19.60;99.90
32476;DHT22;18929;48.008;10.882;2023-09-30T01:08:28;20.10;99.90
32476;DHT22;18929;48.008;10.882;2023-09-30T01:10:55;20.40;99.90
32476;DHT22;18929;48.008;10.882;2023-09-30T01:13:23;20.40;99.90
32476;DHT22;18929;48.008;10.882;2023-09-30T01:15:50;19.60;99.90
32476;DHT22;18929;48.008;10.882;2023-09-30T01:18:16;19.60;99.90
32476;DHT22;18929;48.008;10.882;2023-09-30T01:20:43;19.50;99.90
32476;DHT22;18929;48.008;10.882;2023-09-30T01:23:12;19.90;99.90
32476;DHT22;18929;48.008;10.882;2023-09-30T01:25:39;20.20;99.90
32476;DHT22;18929;48.008;10.882;2023-09-30T01:28:09;20.40;99.90
32476;DHT22;18929;48.008;10.882;2023-09-30T01:30:36;20.40;99.90
32476;DHT22;18929;48.008;10.882;2023-09-30T01:33:03;20.30;99.90
32476;DHT22;18929;48.008;10.882;2023-09-30T01:35:33;20.20;99.90
32476;DHT22;18929;48.008;10.882;2023-09-30T01:38:00;20.10;99.90
32476;DHT22;18929;48.008;10.882;2023-09-30T01:40:28;20.00;99.90
32476;DHT22;18929;48.008;10.882;2023-09-30T01:42:56;19.90;99.90
32476;DHT22;18929;48.008;10.882;2023-09-30T01:45:23;19.90;99.90
32476;DHT22;18929;48.008;10.882;2023-09-30T01:47:50;19.90;99.90
32476;DHT22;18929;48.008;10.882;2023-09-30T01:50:16;20.10;99.90
32476;DHT22;18929;48.008;10.882;2023-09-30T01:52:44;20.10;99.90
32476;DHT22;18929;48.008;10.882;2023-09-30T01:55:11;20.10;99.90
32476;DHT22;18929;48.008;10.882;2023-09-30T01:57:39;20.00;99.90
32476;DHT22;18929;48.008;10.882;2023-09-30T02:00:06;19.90;99.90
32476;DHT22;18929;48.008;10.882;2023-09-30T02:02:35;19.80;99.90
32476;DHT22;18929;48.008;10.882;2023-09-30T02:05:02;19.70;99.90
32476;DHT22;18929;48.008;10.882;2023-09-30T02:07:29;19.70;99.90
32476;DHT22;18929;48.008;10.882;2023-09-30T02:09:56;19.80;99.90
32476;DHT22;18929;48.008;10.882;2023-09-30T02:12:23;19.70;99.90
32476;DHT22;18929;48.008;10.882;2023-09-30T02:14:52;19.80;99.90
32476;DHT22;18929;48.008;10.882;2023-09-30T02:17:19;19.90;99.90
32476;DHT22;18929;48.008;10.882;2023-09-30T02:19:47;19.90;99.90
32476;DHT22;18929;48.008;10.882;2023-09-30T02:22:14;20.00;99.90
32476;DHT22;18929;48.008;10.882;2023-09-30T02:24:41;19.90;99.90
32476;DHT22;18929;48.008;10.882;2023-09-30T02:27:08;19.80;99.90
32476;DHT22;18929;48.008;10.882;2023-09-30T02:29:35;19.80;99.90
32476;DHT22;18929;48.008;10.882;2023-09-30T02:32:03;19.90;99.90
32476;DHT22;18929;48.008;10.882;2023-09-30T02:34:30;20.00;99.90
32476;DHT22;18929;48.008;10.882;2023-09-30T02:36:57;19.90;99.90
32476;DHT22;18929;48.008;10.882;2023-09-30T02:39:25;19.90;99.90
32476;DHT22;18929;48.008;10.882;2023-09-30T02:41:53;19.90;99.90
32476;DHT22;18929;48.008;10.882;2023-09-30T02:44:20;19.90;99.90
32476;DHT22;18929;48.008;10.882;2023-09-30T02:46:48;19.80;99.90
32476;DHT22;18929;48.008;10.882;2023-09-30T02:49:15;19.80;99.90
32476;DHT22;18929;48.008;10.882;2023-09-30T02:51:42;19.80;99.90
32476;DHT22;18929;48.008;10.882;2023-09-30T02:54:10;19.70;99.90
32476;DHT22;18929;48.008;10.882;2023-09-30T02:56:40;19.60;99.90
32476;DHT22;18929;48.008;10.882;2023-09-30T02:59:07;19.80;99.90
32476;DHT22;18929;48.008;10.882;2023-09-30T03:01:35;19.90;99.90
32476;DHT22;18929;48.008;10.882;2023-09-30T03:04:03;19.90;99.90
32476;DHT22;18929;48.008;10.882;2023-09-30T03:06:34;19.90;99.90
32476;DHT22;18929;48.008;10.882;2023-09-30T03:09:02;19.90;99.90
32476;DHT22;18929;48.008;10.882;2023-09-30T03:11:29;19.80;99.90
32476;DHT22;18929;48.008;10.882;2023-09-30T03:13:56;19.60;99.90
32476;DHT22;18929;48.008;10.882;2023-09-30T03:16:23;19.60;99.90
32476;DHT22;18929;48.008;10.882;2023-09-30T03:18:51;19.40;99.90
32476;DHT22;18929;48.008;10.882;2023-09-30T03:21:18;19.30;99.90
32476;DHT22;18929;48.008;10.882;2023-09-30T03:23:46;19.50;99.90
32476;DHT22;18929;48.008;10.882;2023-09-30T03:26:13;19.60;99.90
32476;DHT22;18929;48.008;10.882;2023-09-30T03:28:43;19.70;99.90
32476;DHT22;18929;48.008;10.882;2023-09-30T03:31:11;19.70;99.90
32476;DHT22;18929;48.008;10.882;2023-09-30T03:33:38;19.60;99.90
32476;DHT22;18929;48.008;10.882;2023-09-30T03:36:08;19.50;99.90
32476;DHT22;18929;48.008;10.882;2023-09-30T03:38:35;19.10;99.90
32476;DHT22;18929;48.008;10.882;2023-09-30T03:41:03;19.30;99.90
32476;DHT22;18929;48.008;10.882;2023-09-30T03:43:33;19.30;99.90
32476;DHT22;18929;48.008;10.882;2023-09-30T03:46:06;19.30;99.90
32476;DHT22;18929;48.008;10.882;2023-09-30T03:48:33;19.50;99.90
32476;DHT22;18929;48.008;10.882;2023-09-30T03:51:08;19.40;99.90
32476;DHT22;18929;48.008;10.882;2023-09-30T03:53:35;19.20;99.90
32476;DHT22;18929;48.008;10.882;2023-09-30T03:56:04;19.20;99.90
32476;DHT22;18929;48.008;10.882;2023-09-30T04:01:03;19.50;99.90
32476;DHT22;18929;48.008;10.882;2023-09-30T04:03:31;19.50;99.90
32476;DHT22;18929;48.008;10.882;2023-09-30T04:05:59;19.70;99.90
32476;DHT22;18929;48.008;10.882;2023-09-30T04:08:26;19.50;99.90
32476;DHT22;18929;48.008;10.882;2023-09-30T04:10:53;19.70;99.90
32476;DHT22;18929;48.008;10.882;2023-09-30T04:13:21;19.50;99.90
32476;DHT22;18929;48.008;10.882;2023-09-30T04:15:49;19.40;99.90
32476;DHT22;18929;48.008;10.882;2023-09-30T04:18:16;19.30;99.90
32476;DHT22;18929;48.008;10.882;2023-09-30T04:20:53;19.40;99.90
32476;DHT22;18929;48.008;10.882;2023-09-30T04:23:20;19.40;99.90
32476;DHT22;18929;48.008;10.882;2023-09-30T04:25:47;19.60;99.90
32476;DHT22;18929;48.008;10.882;2023-09-30T04:28:15;19.60;99.90
32476;DHT22;18929;48.008;10.882;2023-09-30T04:30:48;19.60;99.90
32476;DHT22;18929;48.008;10.882;2023-09-30T04:33:15;19.60;99.90
32476;DHT22;18929;48.008;10.882;2023-09-30T04:35:43;19.50;99.90
32476;DHT22;18929;48.008;10.882;2023-09-30T04:38:11;19.40;99.90
32476;DHT22;18929;48.008;10.882;2023-09-30T04:40:38;19.30;99.90
32476;DHT22;18929;48.008;10.882;2023-09-30T04:43:05;19.20;99.90
32476;DHT22;18929;48.008;10.882;2023-09-30T04:45:32;19.30;99.90
32476;DHT22;18929;48.008;10.882;2023-09-30T04:48:01;19.10;99.90
32476;DHT22;18929;48.008;10.882;2023-09-30T04:50:28;18.90;99.90
32476;DHT22;18929;48.008;10.882;2023-09-30T04:52:56;19.10;99.90
32476;DHT22;18929;48.008;10.882;2023-09-30T04:55:23;19.30;99.90
32476;DHT22;18929;48.008;10.882;2023-09-30T04:57:50;19.30;99.90
32476;DHT22;18929;48.008;10.882;2023-09-30T05:00:17;19.20;99.90
32476;DHT22;18929;48.008;10.882;2023-09-30T05:02:47;19.20;99.90
32476;DHT22;18929;48.008;10.882;2023-09-30T05:05:17;19.00;99.90
32476;DHT22;18929;48.008;10.882;2023-09-30T05:07:44;18.90;99.90
32476;DHT22;18929;48.008;10.882;2023-09-30T05:10:12;18.90;99.90
32476;DHT22;18929;48.008;10.882;2023-09-30T05:12:41;18.80;99.90
32476;DHT22;18929;48.008;10.882;2023-09-30T05:15:11;18.90;99.90
32476;DHT22;18929;48.008;10.882;2023-09-30T05:17:38;18.90;99.90
32476;DHT22;18929;48.008;10.882;2023-09-30T05:20:05;18.90;99.90
32476;DHT22;18929;48.008;10.882;2023-09-30T05:22:34;18.90;99.90
32476;DHT22;18929;48.008;10.882;2023-09-30T05:25:01;18.90;99.90
32476;DHT22;18929;48.008;10.882;2023-09-30T05:27:28;18.80;99.90
32476;DHT22;18929;48.008;10.882;2023-09-30T05:29:55;18.70;99.90
32476;DHT22;18929;48.008;10.882;2023-09-30T05:32:22;18.50;99.90
32476;DHT22;18929;48.008;10.882;2023-09-30T05:34:50;18.40;99.90
32476;DHT22;18929;48.008;10.882;2023-09-30T05:37:18;18.50;99.90
32476;DHT22;18929;48.008;10.882;2023-09-30T05:39:49;18.20;99.90
32476;DHT22;18929;48.008;10.882;2023-09-30T05:42:16;17.80;99.90
32476;DHT22;18929;48.008;10.882;2023-09-30T05:44:44;18.20;99.90
32476;DHT22;18929;48.008;10.882;2023-09-30T05:47:11;18.40;99.90
32476;DHT22;18929;48.008;10.882;2023-09-30T05:49:39;18.50;99.90
32476;DHT22;18929;48.008;10.882;2023-09-30T05:52:07;18.60;99.90
32476;DHT22;18929;48.008;10.882;2023-09-30T05:54:34;18.50;99.90
32476;DHT22;18929;48.008;10.882;2023-09-30T05:57:02;18.40;99.90
32476;DHT22;18929;48.008;10.882;2023-09-30T05:59:29;18.40;99.90
32476;DHT22;18929;48.008;10.882;2023-09-30T06:01:56;18.50;99.90
32476;DHT22;18929;48.008;10.882;2023-09-30T06:04:23;18.70;99.90
32476;DHT22;18929;48.008;10.882;2023-09-30T06:06:50;18.80;99.90
32476;DHT22;18929;48.008;10.882;2023-09-30T06:09:20;18.70;99.90
32476;DHT22;18929;48.008;10.882;2023-09-30T06:11:50;18.60;99.90
32476;DHT22;18929;48.008;10.882;2023-09-30T06:14:19;18.50;99.90
32476;DHT22;18929;48.008;10.882;2023-09-30T06:16:46;18.40;99.90
32476;DHT22;18929;48.008;10.882;2023-09-30T06:19:13;18.30;99.90
32476;DHT22;18929;48.008;10.882;2023-09-30T06:21:40;18.40;99.90
32476;DHT22;18929;48.008;10.882;2023-09-30T06:24:08;18.40;99.90
32476;DHT22;18929;48.008;10.882;2023-09-30T06:26:34;18.50;99.90
32476;DHT22;18929;48.008;10.882;2023-09-30T06:29:01;18.50;99.90
32476;DHT22;18929;48.008;10.882;2023-09-30T06:31:30;18.50;99.90
32476;DHT22;18929;48.008;10.882;2023-09-30T06:34:05;18.30;99.90
32476;DHT22;18929;48.008;10.882;2023-09-30T06:36:32;18.10;99.90
32476;DHT22;18929;48.008;10.882;2023-09-30T06:38:59;18.50;99.90
32476;DHT22;18929;48.008;10.882;2023-09-30T06:41:28;18.70;99.90
32476;DHT22;18929;48.008;10.882;2023-09-30T06:43:56;18.70;99.90
32476;DHT22;18929;48.008;10.882;2023-09-30T06:46:23;18.90;99.90
32476;DHT22;18929;48.008;10.882;2023-09-30T06:48:52;19.00;99.90
32476;DHT22;18929;48.008;10.882;2023-09-30T06:51:18;18.90;99.90
32476;DHT22;18929;48.008;10.882;2023-09-30T06:53:45;18.90;99.90
32476;DHT22;18929;48.008;10.882;2023-09-30T06:56:12;18.80;99.90
32476;DHT22;18929;48.008;10.882;2023-09-30T06:58:39;18.70;99.90
32476;DHT22;18929;48.008;10.882;2023-09-30T07:01:06;18.70;99.90
32476;DHT22;18929;48.008;10.882;2023-09-30T07:03:33;18.80;99.90
32476;DHT22;18929;48.008;10.882;2023-09-30T07:08:50;18.90;99.90
32476;DHT22;18929;48.008;10.882;2023-09-30T07:11:26;18.90;99.90
32476;DHT22;18929;48.008;10.882;2023-09-30T07:13:52;18.60;99.90
32476;DHT22;18929;48.008;10.882;2023-09-30T07:16:19;18.60;99.90
32476;DHT22;18929;48.008;10.882;2023-09-30T07:18:46;18.70;99.90
32476;DHT22;18929;48.008;10.882;2023-09-30T07:21:13;18.40;99.90
32476;DHT22;18929;48.008;10.882;2023-09-30T07:23:40;18.40;99.90
32476;DHT22;18929;48.008;10.882;2023-09-30T07:26:09;18.30;99.90
32476;DHT22;18929;48.008;10.882;2023-09-30T07:28:35;18.20;99.90
32476;DHT22;18929;48.008;10.882;2023-09-30T07:31:02;17.90;99.90
32476;DHT22;18929;48.008;10.882;2023-09-30T07:33:29;16.70;99.90
32476;DHT22;18929;48.008;10.882;2023-09-30T07:35:56;17.20;99.90
32476;DHT22;18929;48.008;10.882;2023-09-30T07:38:23;17.60;99.90
32476;DHT22;18929;48.008;10.882;2023-09-30T07:40:50;17.70;99.90
32476;DHT22;18929;48.008;10.882;2023-09-30T07:43:18;17.70;99.90
32476;DHT22;18929;48.008;10.882;2023-09-30T07:45:46;17.60;99.90
32476;DHT22;18929;48.008;10.882;2023-09-30T07:48:12;17.60;99.90
32476;DHT22;18929;48.008;10.882;2023-09-30T07:53:10;17.70;99.90
32476;DHT22;18929;48.008;10.882;2023-09-30T07:55:38;17.90;99.90
32476;DHT22;18929;48.008;10.882;2023-09-30T07:58:05;17.90;99.90
32476;DHT22;18929;48.008;10.882;2023-09-30T08:00:35;18.00;99.90
32476;DHT22;18929;48.008;10.882;2023-09-30T08:03:02;17.70;99.90
32476;DHT22;18929;48.008;10.882;2023-09-30T08:05:29;18.00;99.90
32476;DHT22;18929;48.008;10.882;2023-09-30T08:07:56;17.60;99.90
32476;DHT22;18929;48.008;10.882;2023-09-30T08:10:23;16.80;99.90
32476;DHT22;18929;48.008;10.882;2023-09-30T08:12:50;17.00;99.90
32476;DHT22;18929;48.008;10.882;2023-09-30T08:15:18;17.40;99.90
32476;DHT22;18929;48.008;10.882;2023-09-30T08:17:46;17.30;99.90
32476;DHT22;18929;48.008;10.882;2023-09-30T08:20:13;17.00;99.90
32476;DHT22;18929;48.008;10.882;2023-09-30T08:22:40;16.80;99.90
32476;DHT22;18929;48.008;10.882;2023-09-30T08:25:07;16.60;99.90
32476;DHT22;18929;48.008;10.882;2023-09-30T08:30:20;17.10;99.90
32476;DHT22;18929;48.008;10.882;2023-09-30T08:32:49;17.70;99.90
32476;DHT22;18929;48.008;10.882;2023-09-30T08:35:15;17.60;99.90
32476;DHT22;18929;48.008;10.882;2023-09-30T08:37:43;16.90;99.90
32476;DHT22;18929;48.008;10.882;2023-09-30T08:40:10;17.00;99.90
32476;DHT22;18929;48.008;10.882;2023-09-30T08:42:39;16.70;99.90
32476;DHT22;18929;48.008;10.882;2023-09-30T08:45:08;17.10;99.90
32476;DHT22;18929;48.008;10.882;2023-09-30T08:47:36;17.50;99.90
32476;DHT22;18929;48.008;10.882;2023-09-30T08:50:08;18.00;99.90
32476;DHT22;18929;48.008;10.882;2023-09-30T08:52:36;18.30;99.90
32476;DHT22;18929;48.008;10.882;2023-09-30T08:55:04;18.30;99.90
32476;DHT22;18929;48.008;10.882;2023-09-30T08:57:32;17.80;99.90
32476;DHT22;18929;48.008;10.882;2023-09-30T08:59:59;18.30;99.90
32476;DHT22;18929;48.008;10.882;2023-09-30T09:02:26;18.30;99.90
32476;DHT22;18929;48.008;10.882;2023-09-30T09:04:54;18.40;99.90
32476;DHT22;18929;48.008;10.882;2023-09-30T09:07:22;17.80;99.90
32476;DHT22;18929;48.008;10.882;2023-09-30T09:12:36;17.20;99.90
32476;DHT22;18929;48.008;10.882;2023-09-30T09:15:04;17.40;99.90
32476;DHT22;18929;48.008;10.882;2023-09-30T09:17:41;17.00;99.90
32476;DHT22;18929;48.008;10.882;2023-09-30T09:20:09;17.40;99.90
32476;DHT22;18929;48.008;10.882;2023-09-30T09:22:41;16.90;99.90
32476;DHT22;18929;48.008;10.882;2023-09-30T09:25:09;17.40;99.90
32476;DHT22;18929;48.008;10.882;2023-09-30T09:27:36;17.80;99.90
32476;DHT22;18929;48.008;10.882;2023-09-30T09:30:19;18.00;99.90
32476;DHT22;18929;48.008;10.882;2023-09-30T09:32:58;17.40;99.90
32476;DHT22;18929;48.008;10.882;2023-09-30T09:35:25;17.70;99.90
32476;DHT22;18929;48.008;10.882;2023-09-30T09:37:56;18.30;99.90
32476;DHT22;18929;48.008;10.882;2023-09-30T09:40:24;18.50;99.90
32476;DHT22;18929;48.008;10.882;2023-09-30T09:42:51;18.30;99.90
32476;DHT22;18929;48.008;10.882;2023-09-30T09:45:20;17.70;99.90
32476;DHT22;18929;48.008;10.882;2023-09-30T09:47:48;18.00;99.90
32476;DHT22;18929;48.008;10.882;2023-09-30T09:50:15;18.10;99.90
32476;DHT22;18929;48.008;10.882;2023-09-30T09:52:43;18.30;99.90
32476;DHT22;18929;48.008;10.882;2023-09-30T09:55:13;18.00;99.90
32476;DHT22;18929;48.008;10.882;2023-09-30T09:57:41;18.30;99.90
32476;DHT22;18929;48.008;10.882;2023-09-30T10:00:13;18.20;99.90
32476;DHT22;18929;48.008;10.882;2023-09-30T10:02:42;18.10;99.90
32476;DHT22;18929;48.008;10.882;2023-09-30T10:05:09;18.10;99.90
32476;DHT22;18929;48.008;10.882;2023-09-30T10:07:38;18.40;99.90
32476;DHT22;18929;48.008;10.882;2023-09-30T10:10:07;18.40;99.90
32476;DHT22;18929;48.008;10.882;2023-09-30T10:12:37;18.70;99.90
32476;DHT22;18929;48.008;10.882;2023-09-30T10:17:57;19.10;99.90
32476;DHT22;18929;48.008;10.882;2023-09-30T10:20:26;18.80;99.90
32476;DHT22;18929;48.008;10.882;2023-09-30T10:25:35;18.40;99.90
32476;DHT22;18929;48.008;10.882;2023-09-30T10:33:29;17.80;99.90
32476;DHT22;18929;48.008;10.882;2023-09-30T10:35:56;17.90;99.90
32476;DHT22;18929;48.008;10.882;2023-09-30T10:38:36;18.20;99.90
32476;DHT22;18929;48.008;10.882;2023-09-30T10:41:03;18.40;99.90
32476;DHT22;18929;48.008;10.882;2023-09-30T10:43:30;18.30;99.90
32476;DHT22;18929;48.008;10.882;2023-09-30T10:45:58;18.40;99.90
32476;DHT22;18929;48.008;10.882;2023-09-30T10:48:38;18.40;99.90
32476;DHT22;18929;48.008;10.882;2023-09-30T10:51:10;18.70;99.90
32476;DHT22;18929;48.008;10.882;2023-09-30T10:53:41;19.00;99.90
32476;DHT22;18929;48.008;10.882;2023-09-30T10:56:08;18.90;99.90
32476;DHT22;18929;48.008;10.882;2023-09-30T10:58:42;19.00;99.90
32476;DHT22;18929;48.008;10.882;2023-09-30T11:01:10;19.00;99.90
32476;DHT22;18929;48.008;10.882;2023-09-30T11:03:39;19.20;99.90
32476;DHT22;18929;48.008;10.882;2023-09-30T11:06:06;19.50;99.90
32476;DHT22;18929;48.008;10.882;2023-09-30T11:08:41;19.40;99.90
32476;DHT22;18929;48.008;10.882;2023-09-30T11:11:11;19.40;99.90
32476;DHT22;18929;48.008;10.882;2023-09-30T11:13:39;19.60;99.90
32476;DHT22;18929;48.008;10.882;2023-09-30T11:16:06;19.60;99.90
32476;DHT22;18929;48.008;10.882;2023-09-30T11:18:34;18.60;99.90
32476;DHT22;18929;48.008;10.882;2023-09-30T11:21:05;18.80;99.90
32476;DHT22;18929;48.008;10.882;2023-09-30T11:23:32;19.20;99.90
32476;DHT22;18929;48.008;10.882;2023-09-30T11:25:59;19.10;99.90
32476;DHT22;18929;48.008;10.882;2023-09-30T11:28:34;18.90;99.90
32476;DHT22;18929;48.008;10.882;2023-09-30T11:31:02;18.70;99.90
32476;DHT22;18929;48.008;10.882;2023-09-30T11:33:29;19.20;99.90
32476;DHT22;18929;48.008;10.882;2023-09-30T11:35:57;19.30;99.90
32476;DHT22;18929;48.008;10.882;2023-09-30T11:38:26;18.90;99.90
32476;DHT22;18929;48.008;10.882;2023-09-30T11:41:02;19.30;99.90
32476;DHT22;18929;48.008;10.882;2023-09-30T11:43:32;19.50;99.90
32476;DHT22;18929;48.008;10.882;2023-09-30T11:46:05;19.10;99.90
32476;DHT22;18929;48.008;10.882;2023-09-30T11:48:34;18.40;99.90
32476;DHT22;18929;48.008;10.882;2023-09-30T11:51:02;18.70;99.90
32476;DHT22;18929;48.008;10.882;2023-09-30T11:53:30;18.90;99.90
32476;DHT22;18929;48.008;10.882;2023-09-30T11:55:58;18.90;99.90
32476;DHT22;18929;48.008;10.882;2023-09-30T11:58:28;18.80;99.90
32476;DHT22;18929;48.008;10.882;2023-09-30T12:00:59;18.80;99.90
32476;DHT22;18929;48.008;10.882;2023-09-30T12:03:26;18.80;99.90
32476;DHT22;18929;48.008;10.882;2023-09-30T12:05:53;19.20;99.90
32476;DHT22;18929;48.008;10.882;2023-09-30T12:08:21;19.20;99.90
32476;DHT22;18929;48.008;10.882;2023-09-30T12:10:49;19.40;99.90
32476;DHT22;18929;48.008;10.882;2023-09-30T12:13:17;19.20;99.90
32476;DHT22;18929;48.008;10.882;2023-09-30T12:15:44;19.40;99.90
32476;DHT22;18929;48.008;10.882;2023-09-30T12:18:11;19.70;99.90
32476;DHT22;18929;48.008;10.882;2023-09-30T12:20:42;19.90;99.90
32476;DHT22;18929;48.008;10.882;2023-09-30T12:23:10;20.10;99.90
32476;DHT22;18929;48.008;10.882;2023-09-30T12:25:37;19.90;99.90
32476;DHT22;18929;48.008;10.882;2023-09-30T12:28:05;20.10;99.90
32476;DHT22;18929;48.008;10.882;2023-09-30T12:30:32;19.90;99.90
32476;DHT22;18929;48.008;10.882;2023-09-30T12:35:44;19.70;99.90
32476;DHT22;18929;48.008;10.882;2023-09-30T12:38:11;20.10;99.90
32476;DHT22;18929;48.008;10.882;2023-09-30T12:40:37;20.10;99.90
32476;DHT22;18929;48.008;10.882;2023-09-30T12:43:06;20.10;99.90
32476;DHT22;18929;48.008;10.882;2023-09-30T12:45:33;19.80;99.90
32476;DHT22;18929;48.008;10.882;2023-09-30T12:48:00;19.80;99.90
32476;DHT22;18929;48.008;10.882;2023-09-30T12:50:27;19.80;99.90
32476;DHT22;18929;48.008;10.882;2023-09-30T12:52:54;19.70;99.90
32476;DHT22;18929;48.008;10.882;2023-09-30T12:55:21;20.10;99.90
32476;DHT22;18929;48.008;10.882;2023-09-30T12:57:47;20.10;99.90
32476;DHT22;18929;48.008;10.882;2023-09-30T13:00:16;19.90;99.90
32476;DHT22;18929;48.008;10.882;2023-09-30T13:02:44;19.70;99.90
32476;DHT22;18929;48.008;10.882;2023-09-30T13:05:11;20.10;99.90
32476;DHT22;18929;48.008;10.882;2023-09-30T13:07:38;20.00;99.90
32476;DHT22;18929;48.008;10.882;2023-09-30T13:10:06;19.50;99.90
32476;DHT22;18929;48.008;10.882;2023-09-30T13:12:33;19.80;99.90
32476;DHT22;18929;48.008;10.882;2023-09-30T13:15:00;20.10;99.90
32476;DHT22;18929;48.008;10.882;2023-09-30T13:17:32;20.00;99.90
32476;DHT22;18929;48.008;10.882;2023-09-30T13:19:59;19.30;99.90
32476;DHT22;18929;48.008;10.882;2023-09-30T13:22:30;19.60;99.90
32476;DHT22;18929;48.008;10.882;2023-09-30T13:24:57;20.10;99.90
32476;DHT22;18929;48.008;10.882;2023-09-30T13:27:27;20.30;99.90
32476;DHT22;18929;48.008;10.882;2023-09-30T13:29:54;20.70;99.90
32476;DHT22;18929;48.008;10.882;2023-09-30T13:32:22;21.00;99.90
32476;DHT22;18929;48.008;10.882;2023-09-30T13:34:52;20.90;99.90
32476;DHT22;18929;48.008;10.882;2023-09-30T13:37:19;20.70;99.90
32476;DHT22;18929;48.008;10.882;2023-09-30T13:39:48;20.20;99.90
32476;DHT22;18929;48.008;10.882;2023-09-30T13:42:15;19.60;99.90
32476;DHT22;18929;48.008;10.882;2023-09-30T13:44:43;19.40;99.90
32476;DHT22;18929;48.008;10.882;2023-09-30T13:47:10;19.70;99.90
32476;DHT22;18929;48.008;10.882;2023-09-30T13:49:37;19.90;99.90
32476;DHT22;18929;48.008;10.882;2023-09-30T13:52:05;20.10;99.90
32476;DHT22;18929;48.008;10.882;2023-09-30T13:54:33;20.20;99.90
32476;DHT22;18929;48.008;10.882;2023-09-30T13:59:39;20.00;99.90
32476;DHT22;18929;48.008;10.882;2023-09-30T14:02:07;19.90;99.90
32476;DHT22;18929;48.008;10.882;2023-09-30T14:04:34;20.30;99.90
32476;DHT22;18929;48.008;10.882;2023-09-30T14:07:02;20.40;99.90
32476;DHT22;18929;48.008;10.882;2023-09-30T14:09:30;20.50;99.90
32476;DHT22;18929;48.008;10.882;2023-09-30T14:11:58;20.60;99.90
32476;DHT22;18929;48.008;10.882;2023-09-30T14:14:25;20.10;99.90
32476;DHT22;18929;48.008;10.882;2023-09-30T14:16:52;20.00;99.90
32476;DHT22;18929;48.008;10.882;2023-09-30T14:19:19;20.30;99.90
32476;DHT22;18929;48.008;10.882;2023-09-30T14:21:46;20.60;99.90
32476;DHT22;18929;48.008;10.882;2023-09-30T14:24:14;20.80;99.90
32476;DHT22;18929;48.008;10.882;2023-09-30T14:26:42;20.30;99.90
32476;DHT22;18929;48.008;10.882;2023-09-30T14:29:10;20.60;99.90
32476;DHT22;18929;48.008;10.882;2023-09-30T14:31:38;20.80;99.90
32476;DHT22;18929;48.008;10.882;2023-09-30T14:34:05;20.10;99.90
32476;DHT22;18929;48.008;10.882;2023-09-30T14:39:04;19.40;99.90
32476;DHT22;18929;48.008;10.882;2023-09-30T14:41:34;20.00;99.90
32476;DHT22;18929;48.008;10.882;2023-09-30T14:44:03;20.50;99.90
32476;DHT22;18929;48.008;10.882;2023-09-30T14:46:33;20.60;99.90
32476;DHT22;18929;48.008;10.882;2023-09-30T14:49:00;20.40;99.90
32476;DHT22;18929;48.008;10.882;2023-09-30T14:51:27;20.40;99.90
32476;DHT22;18929;48.008;10.882;2023-09-30T14:53:54;20.60;99.90
32476;DHT22;18929;48.008;10.882;2023-09-30T14:56:21;20.60;99.90
32476;DHT22;18929;48.008;10.882;2023-09-30T15:01:38;20.70;99.90
32476;DHT22;18929;48.008;10.882;2023-09-30T15:04:05;20.80;99.90
32476;DHT22;18929;48.008;10.882;2023-09-30T15:06:32;20.60;99.90
32476;DHT22;18929;48.008;10.882;2023-09-30T15:09:00;20.40;99.90
32476;DHT22;18929;48.008;10.882;2023-09-30T15:11:27;20.50;99.90
32476;DHT22;18929;48.008;10.882;2023-09-30T15:13:54;20.50;99.90
32476;DHT22;18929;48.008;10.882;2023-09-30T15:16:22;20.00;99.90
32476;DHT22;18929;48.008;10.882;2023-09-30T15:18:50;20.00;99.90
32476;DHT22;18929;48.008;10.882;2023-09-30T15:21:17;20.60;99.90
32476;DHT22;18929;48.008;10.882;2023-09-30T15:23:45;20.40;99.90
32476;DHT22;18929;48.008;10.882;2023-09-30T15:26:12;20.20;99.90
32476;DHT22;18929;48.008;10.882;2023-09-30T15:28:39;19.90;99.90
32476;DHT22;18929;48.008;10.882;2023-09-30T15:31:06;19.70;99.90
32476;DHT22;18929;48.008;10.882;2023-09-30T15:33:33;20.10;99.90
32476;DHT22;18929;48.008;10.882;2023-09-30T15:36:09;20.60;99.90
32476;DHT22;18929;48.008;10.882;2023-09-30T15:38:36;20.90;99.90
32476;DHT22;18929;48.008;10.882;2023-09-30T15:41:03;20.40;99.90
32476;DHT22;18929;48.008;10.882;2023-09-30T15:43:30;20.40;99.90
32476;DHT22;18929;48.008;10.882;2023-09-30T15:45:58;20.70;99.90
32476;DHT22;18929;48.008;10.882;2023-09-30T15:48:25;20.90;99.90
32476;DHT22;18929;48.008;10.882;2023-09-30T15:50:54;20.70;99.90
32476;DHT22;18929;48.008;10.882;2023-09-30T15:55:55;20.50;99.90
32476;DHT22;18929;48.008;10.882;2023-09-30T15:58:29;20.70;99.90